Time;durP1;ratioP1;P1;durP2;ratioP2;P2;SDS_P1;SDS_P2;PMS_P1;PMS_P2;Temp;Humidity;BMP_temperature;BMP_pressure;BME280_temperature;BME280_humidity;BME280_pressure;Samples;Min_cycle;Max_cycle;Signal;HPM_P1;HPM_P2
2023/12/10 00:00:27;;;;;;;1.60;1.60;;;;;;;2.07;100.00;99617.31;5073325;28;20199;-74
2023/12/10 00:02:54;;;;;;;0.90;0.90;;;;;;;1.97;100.00;99605.44;5073640;28;20214;-73
2023/12/10 00:05:20;;;;;;;0.60;0.60;;;;;;;1.96;100.00;99603.78;5075910;28;20200;-74
2023/12/10 00:07:48;;;;;;;0.63;0.63;;;;;;;2.09;100.00;99620.72;5075115;28;20672;-74
2023/12/10 00:10:15;;;;;;;0.83;0.83;;;;;;;2.13;100.00;99623.28;5073646;28;20196;-73
2023/12/10 00:12:42;;;;;;;0.60;0.60;;;;;;;2.08;100.00;99619.03;5074636;28;20197;-73
2023/12/10 00:15:10;;;;;;;0.90;0.90;;;;;;;1.99;100.00;99624.00;5072521;28;20219;-74
2023/12/10 00:17:37;;;;;;;0.90;0.90;;;;;;;1.98;100.00;99627.38;5073901;28;20207;-73
2023/12/10 00:20:04;;;;;;;1.10;1.10;;;;;;;2.04;100.00;99627.41;5073232;28;20578;-73
2023/12/10 00:22:31;;;;;;;1.07;1.07;;;;;;;2.05;100.00;99624.06;5073441;28;20192;-74
2023/12/10 00:24:59;;;;;;;0.70;0.70;;;;;;;1.98;100.00;99622.31;5072339;28;20219;-74
2023/12/10 00:27:26;;;;;;;0.83;0.83;;;;;;;1.94;100.00;99630.69;5073690;28;20192;-74
2023/12/10 00:29:53;;;;;;;1.10;1.10;;;;;;;1.86;100.00;99636.53;5075738;28;20204;-75
2023/12/10 00:32:20;;;;;;;0.70;0.70;;;;;;;1.81;100.00;99639.00;5075232;28;20215;-74
2023/12/10 00:34:47;;;;;;;1.90;1.20;;;;;;;1.81;100.00;99639.00;5075566;28;20192;-75
2023/12/10 00:37:14;;;;;;;0.90;0.90;;;;;;;1.73;100.00;99625.47;5075569;28;20247;-75
2023/12/10 00:39:41;;;;;;;0.70;0.70;;;;;;;1.90;100.00;99639.13;5073517;28;20199;-74
2023/12/10 00:42:09;;;;;;;0.90;0.90;;;;;;;1.90;100.00;99634.06;5078398;28;20686;-73
2023/12/10 00:44:36;;;;;;;1.13;1.13;;;;;;;1.94;100.00;99635.75;5077186;28;20603;-75
2023/12/10 00:47:03;;;;;;;1.20;1.20;;;;;;;1.95;100.00;99627.34;5078113;28;20218;-75
2023/12/10 00:49:29;;;;;;;0.73;0.73;;;;;;;2.01;100.00;99631.59;5081304;28;20204;-75
2023/12/10 00:51:56;;;;;;;0.97;0.97;;;;;;;1.94;100.00;99624.81;5078972;28;20223;-75
2023/12/10 00:54:24;;;;;;;1.13;1.13;;;;;;;1.95;100.00;99622.28;5079822;28;20232;-75
2023/12/10 00:56:50;;;;;;;0.87;0.87;;;;;;;1.95;100.00;99622.28;5081732;28;20289;-75
2023/12/10 00:59:19;;;;;;;0.70;0.70;;;;;;;1.94;100.00;99620.59;5085260;28;20193;-75
2023/12/10 01:01:45;;;;;;;0.60;0.60;;;;;;;1.92;100.00;99617.22;5080285;28;20203;-75
2023/12/10 01:04:12;;;;;;;0.70;0.70;;;;;;;1.89;100.00;99619.72;5081694;28;20200;-75
2023/12/10 01:06:39;;;;;;;0.93;0.93;;;;;;;1.92;100.00;99617.22;5082703;28;20204;-76
2023/12/10 01:09:08;;;;;;;0.77;0.77;;;;;;;1.97;100.00;99609.69;5087698;28;20199;-76
2023/12/10 01:11:35;;;;;;;2.93;0.70;;;;;;;1.97;100.00;99607.16;5084050;28;20265;-75
2023/12/10 01:14:03;;;;;;;0.70;0.70;;;;;;;1.95;100.00;99607.13;5081896;28;20195;-75
2023/12/10 01:16:31;;;;;;;0.60;0.60;;;;;;;1.88;100.00;99596.94;5081966;28;20204;-74
2023/12/10 01:18:58;;;;;;;0.60;0.60;;;;;;;1.91;100.00;99604.53;5085198;28;20204;-76
2023/12/10 01:21:25;;;;;;;1.50;0.97;;;;;;;1.91;100.00;99607.94;5085515;28;20203;-76
2023/12/10 01:23:55;;;;;;;0.70;0.70;;;;;;;1.90;100.00;99613.84;5084046;28;20200;-76
2023/12/10 01:26:23;;;;;;;1.50;1.13;;;;;;;1.93;100.00;99613.84;5089915;28;20266;-76
2023/12/10 01:28:51;;;;;;;0.60;0.60;;;;;;;1.85;100.00;99589.34;5086387;28;20768;-77
2023/12/10 01:31:18;;;;;;;1.20;1.20;;;;;;;1.96;100.00;99603.78;5083105;28;20249;-77
2023/12/10 01:33:46;;;;;;;0.93;0.93;;;;;;;1.97;100.00;99605.44;5080793;28;20200;-76
2023/12/10 01:36:22;;;;;;;0.70;0.70;;;;;;;1.99;100.00;99603.78;5080130;28;20656;-77
2023/12/10 01:38:49;;;;;;;0.73;0.73;;;;;;;1.96;100.00;99601.25;5080138;28;20196;-77
2023/12/10 01:41:16;;;;;;;1.00;1.00;;;;;;;1.96;100.00;99603.78;5078913;28;20200;-77
2023/12/10 01:43:43;;;;;;;0.80;0.80;;;;;;;1.95;100.00;99602.06;5076970;28;20196;-77
2023/12/10 01:46:10;;;;;;;1.37;1.37;;;;;;;1.98;100.00;99591.13;5079147;28;20233;-77
2023/12/10 01:48:39;;;;;;;0.70;0.70;;;;;;;1.97;100.00;99585.22;5079319;28;20196;-76
2023/12/10 01:51:08;;;;;;;2.37;0.90;;;;;;;1.88;100.00;99572.53;5077957;28;20196;-77
2023/12/10 01:53:35;;;;;;;0.80;0.80;;;;;;;1.95;100.00;99581.00;5079097;28;20230;-76
2023/12/10 01:56:02;;;;;;;1.30;1.30;;;;;;;1.95;100.00;99581.84;5078246;28;20200;-77
2023/12/10 01:58:29;;;;;;;1.60;1.60;;;;;;;1.91;100.00;99580.13;5076014;28;20196;-77
2023/12/10 02:00:56;;;;;;;0.90;0.90;;;;;;;1.85;100.00;99572.50;5075429;28;20196;-76
2023/12/10 02:03:23;;;;;;;0.80;0.80;;;;;;;1.88;100.00;99572.53;5074813;28;20207;-77
2023/12/10 02:05:50;;;;;;;0.90;0.90;;;;;;;1.88;100.00;99559.88;5074676;28;20208;-74
2023/12/10 02:08:19;;;;;;;0.80;0.80;;;;;;;1.72;100.00;99542.91;5075816;28;20196;-77
2023/12/10 02:10:46;;;;;;;1.13;1.13;;;;;;;1.75;100.00;99553.03;5076015;28;20207;-76
2023/12/10 02:13:13;;;;;;;0.80;0.80;;;;;;;1.55;100.00;99545.31;5073047;28;20215;-76
2023/12/10 02:15:41;;;;;;;0.93;0.93;;;;;;;1.50;100.00;99546.13;5072941;28;20192;-76
2023/12/10 02:18:07;;;;;;;0.70;0.70;;;;;;;1.52;100.00;99541.91;5073776;28;20200;-76
2023/12/10 02:20:34;;;;;;;3.00;1.07;;;;;;;1.58;100.00;99550.38;5076674;28;20204;-76
2023/12/10 02:23:05;;;;;;;0.90;0.90;;;;;;;1.62;100.00;99550.44;5073377;28;20200;-75
2023/12/10 02:25:34;;;;;;;1.27;1.13;;;;;;;1.61;100.00;99552.09;5074461;28;20196;-76
2023/12/10 02:28:02;;;;;;;0.83;0.83;;;;;;;1.67;100.00;99562.25;5079951;28;20204;-75
2023/12/10 02:30:30;;;;;;;0.90;0.90;;;;;;;1.67;100.00;99554.69;5075095;28;20569;-75
2023/12/10 02:32:57;;;;;;;0.90;0.90;;;;;;;1.61;100.00;99544.53;5073938;28;20208;-75
2023/12/10 02:35:23;;;;;;;1.03;1.03;;;;;;;1.58;100.00;99547.03;5072433;28;20684;-75
2023/12/10 02:37:50;;;;;;;1.10;1.10;;;;;;;1.63;100.00;99557.16;5072880;28;20726;-75
2023/12/10 02:40:18;;;;;;;0.67;0.67;;;;;;;1.62;100.00;99561.34;5072946;28;20594;-75
2023/12/10 02:42:46;;;;;;;0.70;0.70;;;;;;;1.62;100.00;99561.34;5072830;28;20196;-75
2023/12/10 02:45:13;;;;;;;1.17;1.17;;;;;;;1.43;100.00;99545.22;5071730;28;20196;-75
2023/12/10 02:47:41;;;;;;;0.83;0.83;;;;;;;1.55;100.00;99560.47;5072427;28;20196;-74
2023/12/10 02:50:09;;;;;;;1.00;1.00;;;;;;;1.59;100.00;99566.38;5071691;28;20718;-75
2023/12/10 02:52:36;;;;;;;0.60;0.60;;;;;;;1.65;100.00;99568.97;5073485;28;20211;-75
2023/12/10 02:55:03;;;;;;;1.07;1.07;;;;;;;1.66;100.00;99567.28;5071368;28;20587;-74
2023/12/10 02:57:30;;;;;;;1.20;1.20;;;;;;;1.62;100.00;99566.41;5070994;28;20192;-74
2023/12/10 02:59:58;;;;;;;1.00;1.00;;;;;;;1.74;100.00;99580.84;5071188;28;20219;-74
2023/12/10 03:02:25;;;;;;;0.87;0.87;;;;;;;1.80;100.00;99581.75;5070357;28;20200;-73
2023/12/10 03:04:52;;;;;;;0.97;0.97;;;;;;;1.82;100.00;99594.38;5071231;28;20603;-74
2023/12/10 03:07:19;;;;;;;0.73;0.73;;;;;;;1.85;100.00;99597.78;5071176;28;20196;-74
2023/12/10 03:09:46;;;;;;;1.40;1.40;;;;;;;1.87;100.00;99603.72;5070635;28;20206;-74
2023/12/10 03:12:12;;;;;;;1.23;1.23;;;;;;;1.87;100.00;99602.84;5071192;28;20207;-74
2023/12/10 03:14:39;;;;;;;0.83;0.83;;;;;;;1.94;100.00;99613.00;5068958;28;20207;-73
2023/12/10 03:17:08;;;;;;;1.17;1.17;;;;;;;1.94;100.00;99615.53;5071056;28;20192;-73
2023/12/10 03:19:36;;;;;;;1.70;1.70;;;;;;;1.95;100.00;99613.84;5070928;28;20218;-73
2023/12/10 03:22:03;;;;;;;0.93;0.93;;;;;;;1.97;100.00;99613.03;5067299;28;20203;-73
2023/12/10 03:24:29;;;;;;;1.10;1.10;;;;;;;1.99;100.00;99618.97;5068829;28;20200;-73
2023/12/10 03:26:56;;;;;;;1.60;0.90;;;;;;;1.94;100.00;99600.38;5065782;28;20595;-73
2023/12/10 03:29:23;;;;;;;0.90;0.90;;;;;;;1.93;100.00;99601.22;5070844;28;20560;-73
2023/12/10 03:31:50;;;;;;;0.60;0.60;;;;;;;2.11;100.00;99610.59;5073157;28;20576;-74
2023/12/10 03:34:18;;;;;;;1.80;1.80;;;;;;;2.06;100.00;99613.13;5072230;28;20196;-73
2023/12/10 03:36:45;;;;;;;1.00;1.00;;;;;;;1.93;100.00;99613.00;5074376;28;20718;-72
2023/12/10 03:39:12;;;;;;;0.60;0.60;;;;;;;1.96;100.00;99613.88;5074928;28;20199;-73
2023/12/10 03:41:38;;;;;;;1.10;1.10;;;;;;;1.94;100.00;99600.38;5076539;28;20204;-73
2023/12/10 03:44:05;;;;;;;0.70;0.70;;;;;;;1.86;100.00;99581.78;5073657;28;20227;-72
2023/12/10 03:46:32;;;;;;;1.00;1.00;;;;;;;1.90;100.00;99593.63;5074685;28;20200;-73
2023/12/10 03:48:59;;;;;;;1.10;0.93;;;;;;;1.81;100.00;99572.47;5074367;28;20200;-72
2023/12/10 03:51:27;;;;;;;0.73;0.73;;;;;;;1.74;100.00;99576.63;5074710;28;20207;-73
2023/12/10 03:53:54;;;;;;;1.27;1.27;;;;;;;1.66;100.00;99573.19;5074514;28;20691;-72
2023/12/10 03:56:20;;;;;;;1.37;1.37;;;;;;;1.67;100.00;99579.09;5074462;28;20207;-73
2023/12/10 03:58:47;;;;;;;0.70;0.70;;;;;;;1.73;100.00;99577.47;5074356;28;20207;-73
2023/12/10 04:01:14;;;;;;;1.43;1.43;;;;;;;1.79;100.00;99582.56;5074494;28;20196;-73
2023/12/10 04:03:41;;;;;;;1.23;1.23;;;;;;;1.87;100.00;99578.44;5074371;28;20188;-73
2023/12/10 04:06:08;;;;;;;0.70;0.70;;;;;;;1.87;100.00;99568.31;5074136;28;20582;-73
2023/12/10 04:08:36;;;;;;;1.13;1.13;;;;;;;1.85;100.00;99559.00;5074196;28;20207;-73
2023/12/10 04:11:03;;;;;;;0.80;0.80;;;;;;;1.91;100.00;99574.22;5073961;28;20196;-73
2023/12/10 04:13:31;;;;;;;0.70;0.70;;;;;;;1.82;100.00;99562.38;5074347;28;20304;-73
2023/12/10 04:15:59;;;;;;;0.67;0.67;;;;;;;1.78;100.00;99567.41;5073992;28;20200;-72
2023/12/10 04:18:27;;;;;;;0.73;0.73;;;;;;;1.75;100.00;99570.72;5074195;28;20200;-73
2023/12/10 04:20:53;;;;;;;1.70;1.60;;;;;;;1.81;100.00;99588.47;5074159;28;20748;-73
2023/12/10 04:23:21;;;;;;;2.20;2.20;;;;;;;1.85;100.00;99585.13;5073908;28;20208;-73
2023/12/10 04:25:49;;;;;;;0.73;0.73;;;;;;;1.88;100.00;99585.16;5074361;28;20266;-73
2023/12/10 04:28:16;;;;;;;0.80;0.80;;;;;;;1.93;100.00;99577.63;5078052;28;20690;-73
2023/12/10 04:30:43;;;;;;;1.10;1.10;;;;;;;1.92;100.00;99583.50;5074076;28;20690;-73
2023/12/10 04:33:10;;;;;;;1.63;1.63;;;;;;;1.96;100.00;99588.59;5073953;28;20565;-72
2023/12/10 04:35:37;;;;;;;1.47;1.47;;;;;;;2.01;100.00;99592.00;5073921;28;20192;-73
2023/12/10 04:38:03;;;;;;;0.80;0.80;;;;;;;2.02;100.00;99586.13;5074039;28;20232;-73
2023/12/10 04:40:30;;;;;;;0.90;0.90;;;;;;;2.01;100.00;99592.00;5073704;28;20695;-73
2023/12/10 04:42:58;;;;;;;1.93;1.93;;;;;;;2.12;100.00;99592.06;5074172;28;20200;-73
2023/12/10 04:45:25;;;;;;;0.90;0.90;;;;;;;2.08;100.00;99593.72;5072876;28;20203;-73
2023/12/10 04:47:52;;;;;;;0.67;0.67;;;;;;;2.08;100.00;99587.81;5074054;28;20586;-73
2023/12/10 04:50:19;;;;;;;7.43;0.90;;;;;;;2.07;100.00;99581.91;5073754;28;20199;-72
2023/12/10 04:52:46;;;;;;;6.43;1.07;;;;;;;2.13;100.00;99589.53;5073237;28;20224;-73
2023/12/10 04:55:13;;;;;;;1.23;1.23;;;;;;;2.11;100.00;99588.69;5073773;28;20207;-73
2023/12/10 04:57:39;;;;;;;1.73;1.13;;;;;;;2.13;100.00;99594.59;5073690;28;20196;-72
2023/12/10 05:00:09;;;;;;;1.10;1.10;;;;;;;2.10;100.00;99598.81;5073695;28;20209;-73
2023/12/10 05:02:37;;;;;;;0.93;0.93;;;;;;;2.10;100.00;99602.16;5073345;28;20196;-73
2023/12/10 05:05:04;;;;;;;0.60;0.60;;;;;;;2.07;100.00;99591.19;5073716;28;20672;-73
2023/12/10 05:07:30;;;;;;;1.10;1.07;;;;;;;2.02;100.00;99587.78;5073415;28;20226;-72
2023/12/10 05:09:57;;;;;;;0.83;0.83;;;;;;;2.00;100.00;99594.53;5075170;28;20611;-73
2023/12/10 05:12:24;;;;;;;1.33;1.30;;;;;;;2.00;100.00;99595.34;5074049;28;20755;-73
2023/12/10 05:14:51;;;;;;;0.70;0.70;;;;;;;2.05;100.00;99598.78;5073251;28;20257;-73
2023/12/10 05:17:19;;;;;;;0.90;0.90;;;;;;;2.09;100.00;99610.59;5073603;28;20591;-73
2023/12/10 05:19:46;;;;;;;1.57;1.57;;;;;;;2.01;100.00;99599.59;5073235;28;20203;-73
2023/12/10 05:22:13;;;;;;;1.63;1.63;;;;;;;1.80;100.00;99596.91;5073328;28;20207;-73
2023/12/10 05:24:40;;;;;;;0.80;0.80;;;;;;;1.82;100.00;99601.97;5073042;28;20196;-72
2023/12/10 05:27:07;;;;;;;0.70;0.70;;;;;;;1.87;100.00;99596.13;5053248;28;20205;-73
2023/12/10 05:29:34;;;;;;;1.00;1.00;;;;;;;1.80;100.00;99601.97;5053014;28;20727;-72
2023/12/10 05:32:01;;;;;;;1.03;1.03;;;;;;;1.80;100.00;99607.00;5053069;28;20204;-73
2023/12/10 05:34:29;;;;;;;1.00;1.00;;;;;;;1.70;100.00;99620.41;5069951;28;20616;-73
2023/12/10 05:36:56;;;;;;;1.00;1.00;;;;;;;1.58;100.00;99616.06;5072688;28;20250;-73
2023/12/10 05:39:23;;;;;;;0.60;0.60;;;;;;;1.62;100.00;99619.47;5073070;28;20599;-73
2023/12/10 05:41:50;;;;;;;0.97;0.77;;;;;;;1.67;100.00;99609.41;5072822;28;20208;-73
2023/12/10 05:44:17;;;;;;;1.07;1.07;;;;;;;1.69;100.00;99605.22;5073135;28;20200;-73
2023/12/10 05:46:44;;;;;;;1.03;1.03;;;;;;;1.71;100.00;99617.06;5072757;28;20212;-72
2023/12/10 05:49:11;;;;;;;1.00;1.00;;;;;;;1.60;100.00;99593.34;5072721;28;20204;-73
2023/12/10 05:51:39;;;;;;;0.53;0.53;;;;;;;1.71;100.00;99617.06;5072695;28;20626;-72
2023/12/10 05:54:06;;;;;;;1.30;1.30;;;;;;;1.65;100.00;99606.88;5072404;28;20220;-72
2023/12/10 05:56:33;;;;;;;1.10;1.10;;;;;;;1.55;100.00;99608.47;5072231;28;20223;-72
2023/12/10 05:59:01;;;;;;;1.60;1.57;;;;;;;1.54;100.00;99608.47;5072493;28;20676;-72
2023/12/10 06:01:27;;;;;;;2.00;0.90;;;;;;;1.61;100.00;99600.13;5072567;28;20207;-73
2023/12/10 06:03:54;;;;;;;0.70;0.70;;;;;;;1.67;100.00;99610.28;5072638;28;20687;-72
2023/12/10 06:06:21;;;;;;;0.70;0.70;;;;;;;1.47;100.00;99589.88;5072701;28;20204;-73
2023/12/10 06:08:49;;;;;;;0.63;0.63;;;;;;;1.54;100.00;99605.94;5080245;28;20187;-72
2023/12/10 06:11:16;;;;;;;1.00;1.00;;;;;;;1.51;100.00;99608.44;5072310;28;20208;-74
2023/12/10 06:13:43;;;;;;;2.03;1.93;;;;;;;1.34;100.00;99608.28;5072238;28;20242;-73
2023/12/10 06:16:10;;;;;;;1.37;1.37;;;;;;;1.43;100.00;99605.81;5072347;28;20287;-73
2023/12/10 06:18:37;;;;;;;1.90;1.90;;;;;;;1.51;100.00;99605.91;5072883;28;20711;-73
2023/12/10 06:21:04;;;;;;;1.53;1.50;;;;;;;1.48;100.00;99603.38;5072518;28;20696;-71
2023/12/10 06:23:31;;;;;;;1.20;1.20;;;;;;;1.42;100.00;99598.25;5072359;28;20207;-72
2023/12/10 06:25:59;;;;;;;0.90;0.90;;;;;;;1.37;100.00;99589.78;5072476;28;20200;-73
2023/12/10 06:28:26;;;;;;;1.00;1.00;;;;;;;1.49;100.00;99599.97;5072170;28;20199;-73
2023/12/10 06:30:53;;;;;;;1.93;1.93;;;;;;;1.55;100.00;99600.06;5072516;28;20776;-73
2023/12/10 06:33:20;;;;;;;1.03;1.03;;;;;;;1.44;100.00;99591.53;5072127;28;20215;-74
2023/12/10 06:35:46;;;;;;;1.43;1.43;;;;;;;1.59;100.00;99606.81;5072334;28;20200;-73
2023/12/10 06:38:13;;;;;;;1.07;1.07;;;;;;;1.64;100.00;99605.19;5057025;28;20228;-73
2023/12/10 06:40:40;;;;;;;1.37;1.37;;;;;;;1.63;100.00;99598.44;5072580;28;20672;-74
2023/12/10 06:43:08;;;;;;;2.50;2.40;;;;;;;1.79;100.00;99617.94;5073223;28;20207;-74
2023/12/10 06:45:35;;;;;;;2.53;2.33;;;;;;;1.85;100.00;99618.00;5072536;28;20203;-74
2023/12/10 06:48:02;;;;;;;1.53;1.53;;;;;;;1.89;100.00;99619.72;5072199;28;20208;-74
2023/12/10 06:50:30;;;;;;;0.87;0.87;;;;;;;1.85;100.00;99625.56;5072100;28;20203;-74
2023/12/10 06:52:57;;;;;;;1.43;1.43;;;;;;;1.91;100.00;99624.78;5071843;28;20222;-74
2023/12/10 06:55:24;;;;;;;1.27;1.27;;;;;;;1.81;100.00;99618.78;5071586;28;20196;-72
2023/12/10 06:57:50;;;;;;;1.67;1.67;;;;;;;1.90;100.00;99636.59;5071759;28;20200;-74
2023/12/10 07:00:20;;;;;;;1.27;1.17;;;;;;;1.81;100.00;99639.00;5071825;28;20211;-74
2023/12/10 07:02:46;;;;;;;0.70;0.70;;;;;;;1.79;100.00;99630.59;5072085;28;20196;-74
2023/12/10 07:05:13;;;;;;;1.43;1.13;;;;;;;1.86;100.00;99647.50;5072635;28;20581;-74
2023/12/10 07:07:40;;;;;;;1.67;1.67;;;;;;;1.74;100.00;99641.50;5071912;28;20192;-74
2023/12/10 07:10:08;;;;;;;1.27;1.27;;;;;;;1.81;100.00;99639.00;5075167;28;20204;-73
2023/12/10 07:12:35;;;;;;;0.97;0.97;;;;;;;1.80;100.00;99642.41;5083967;28;20207;-74
2023/12/10 07:15:01;;;;;;;0.90;0.90;;;;;;;1.77;100.00;99639.84;5076456;28;20203;-74
2023/12/10 07:17:30;;;;;;;5.00;1.63;;;;;;;1.74;100.00;99652.47;5076045;28;20210;-74
2023/12/10 07:19:57;;;;;;;0.87;0.87;;;;;;;1.67;100.00;99650.69;5076144;28;20200;-73
2023/12/10 07:22:23;;;;;;;1.13;1.13;;;;;;;1.74;100.00;99657.50;5076075;28;20211;-74
2023/12/10 07:24:50;;;;;;;6.60;1.67;;;;;;;1.80;100.00;99661.75;5076067;28;20584;-74
2023/12/10 07:27:17;;;;;;;2.10;2.10;;;;;;;1.84;100.00;99658.44;5076375;28;20200;-74
2023/12/10 07:29:44;;;;;;;1.10;1.10;;;;;;;1.75;100.00;99659.19;5075502;28;20211;-73
2023/12/10 07:32:11;;;;;;;2.03;1.93;;;;;;;1.76;100.00;99655.84;5076117;28;20611;-74
2023/12/10 07:34:39;;;;;;;1.17;1.17;;;;;;;1.80;100.00;99661.75;5076059;28;20223;-73
2023/12/10 07:37:06;;;;;;;4.10;1.10;;;;;;;1.79;100.00;99657.53;5075723;28;20238;-73
2023/12/10 07:39:32;;;;;;;1.17;1.17;;;;;;;1.78;100.00;99659.22;5076309;28;20643;-74
2023/12/10 07:42:01;;;;;;;1.13;1.13;;;;;;;1.90;100.00;99661.88;5076160;28;20200;-73
2023/12/10 07:44:28;;;;;;;0.73;0.73;;;;;;;1.86;100.00;99652.56;5075216;28;20196;-74
2023/12/10 07:46:56;;;;;;;8.90;1.10;;;;;;;1.89;100.00;99662.69;5075096;28;20200;-74
2023/12/10 07:49:23;;;;;;;2.43;2.37;;;;;;;1.88;100.00;99671.09;5075792;28;20218;-74
2023/12/10 07:51:51;;;;;;;1.33;1.33;;;;;;;1.98;100.00;99667.81;5075518;28;20204;-73
2023/12/10 07:54:18;;;;;;;0.90;0.90;;;;;;;1.98;100.00;99666.97;5078866;28;20221;-74
2023/12/10 07:56:45;;;;;;;0.70;0.70;;;;;;;2.02;100.00;99669.53;5076899;28;20591;-72
2023/12/10 07:59:12;;;;;;;3.07;1.43;;;;;;;2.13;100.00;99673.84;5075068;28;20235;-74
2023/12/10 08:01:39;;;;;;;1.77;1.63;;;;;;;2.19;100.00;99671.34;5075525;28;20204;-74
2023/12/10 08:04:06;;;;;;;0.63;0.63;;;;;;;2.08;100.00;99684.75;5075039;28;20192;-73
2023/12/10 08:06:33;;;;;;;4.63;2.40;;;;;;;2.05;100.00;99687.28;5075528;28;20200;-74
2023/12/10 08:09:04;;;;;;;0.93;0.93;;;;;;;2.13;100.00;99677.22;5075560;28;20204;-73
2023/12/10 08:11:31;;;;;;;11.20;2.53;;;;;;;2.13;100.00;99676.38;5075721;28;20200;-74
2023/12/10 08:13:58;;;;;;;1.03;1.03;;;;;;;2.13;100.00;99693.22;5075665;28;20223;-74
2023/12/10 08:16:25;;;;;;;1.87;1.77;;;;;;;2.23;100.00;99693.31;5076665;28;20195;-74
2023/12/10 08:18:52;;;;;;;3.17;3.07;;;;;;;2.36;100.00;99700.16;5076949;28;20193;-74
2023/12/10 08:21:19;;;;;;;0.50;0.50;;;;;;;2.42;100.00;99700.22;5076205;28;20196;-74
2023/12/10 08:23:47;;;;;;;2.83;1.37;;;;;;;2.49;100.00;99696.84;5077823;28;20200;-75
2023/12/10 08:26:15;;;;;;;5.57;5.27;;;;;;;2.55;100.00;99699.47;5064046;28;20243;-72
2023/12/10 08:28:42;;;;;;;12.63;4.57;;;;;;;2.55;100.00;99709.56;5080403;28;20203;-75
2023/12/10 08:31:09;;;;;;;2.83;2.63;;;;;;;2.52;100.00;99707.03;5078253;28;20207;-75
2023/12/10 08:33:35;;;;;;;2.20;2.10;;;;;;;2.57;100.00;99715.47;5079851;28;20212;-74
2023/12/10 08:36:03;;;;;;;2.40;2.30;;;;;;;2.62;100.00;99713.81;5078664;28;20196;-74
2023/12/10 08:38:30;;;;;;;24.80;5.60;;;;;;;2.69;100.00;99709.66;5078957;28;20573;-73
2023/12/10 08:40:57;;;;;;;6.77;6.20;;;;;;;2.49;100.00;99706.97;5074363;28;20262;-74
2023/12/10 08:43:25;;;;;;;29.63;11.43;;;;;;;2.54;100.00;99700.28;5080194;28;20200;-73
2023/12/10 08:45:54;;;;;;;3.37;3.00;;;;;;;2.63;100.00;99710.47;5079264;28;20215;-74
2023/12/10 08:48:21;;;;;;;4.03;3.83;;;;;;;2.59;100.00;99708.75;5075585;28;20199;-74
2023/12/10 08:50:47;;;;;;;4.43;1.90;;;;;;;2.65;100.00;99701.19;5081382;28;20695;-75
2023/12/10 08:53:14;;;;;;;5.00;4.50;;;;;;;2.64;100.00;99687.72;5082412;28;20212;-75
2023/12/10 08:55:41;;;;;;;1.47;1.47;;;;;;;2.78;100.00;99695.34;5082141;28;20207;-74
2023/12/10 08:58:08;;;;;;;1.60;1.47;;;;;;;2.87;100.00;99700.50;5082046;28;20626;-74
2023/12/10 09:01:29;;;;;;;1.30;1.30;;;;;;;2.96;100.00;99687.03;5081051;28;20204;-74
2023/12/10 09:04:00;;;;;;;5.90;1.27;;;;;;;3.01;100.00;99678.59;5058744;28;20207;-74
2023/12/10 09:06:27;;;;;;;1.73;1.73;;;;;;;3.10;100.00;99672.75;5069507;28;20222;-75
2023/12/10 09:09:00;;;;;;;5.70;5.40;;;;;;;3.18;100.00;99671.94;5082977;28;20200;-74
2023/12/10 09:11:27;;;;;;;2.00;1.83;;;;;;;3.22;100.00;99662.66;5083004;28;20208;-74
2023/12/10 09:13:53;;;;;;;1.67;1.67;;;;;;;3.22;100.00;99657.59;5081807;28;20224;-75
2023/12/10 09:16:21;;;;;;;2.47;2.27;;;;;;;3.32;100.00;99649.19;5080075;28;20199;-73
2023/12/10 09:18:48;;;;;;;1.47;1.47;;;;;;;3.35;100.00;99648.34;5080755;28;20208;-73
2023/12/10 09:21:53;;;;;;;1.33;1.33;;;;;;;3.38;100.00;99654.25;5081825;28;20211;-74
2023/12/10 09:24:20;;;;;;;1.40;1.40;;;;;;;3.41;100.00;99653.41;5078866;28;20761;-74
2023/12/10 09:26:47;;;;;;;1.57;1.57;;;;;;;3.39;100.00;99655.13;5080082;28;20281;-69
2023/12/10 09:29:14;;;;;;;1.70;1.70;;;;;;;3.40;100.00;99649.19;5079288;28;20204;-74
2023/12/10 09:31:41;;;;;;;1.70;1.70;;;;;;;3.46;100.00;99641.59;5082094;28;20203;-74
2023/12/10 09:34:09;;;;;;;1.10;1.10;;;;;;;3.49;100.00;99632.31;5081416;28;20215;-74
2023/12/10 09:36:36;;;;;;;2.30;2.20;;;;;;;3.44;100.00;99617.94;5078780;28;20235;-74
2023/12/10 09:39:04;;;;;;;11.10;3.40;;;;;;;3.39;100.00;99607.81;5079204;28;20204;-72
2023/12/10 09:41:31;;;;;;;1.77;1.77;;;;;;;3.41;100.00;99615.41;5080919;28;20211;-74
2023/12/10 09:43:58;;;;;;;1.17;1.17;;;;;;;3.38;100.00;99617.94;5084803;28;20204;-73
2023/12/10 09:46:27;;;;;;;1.13;1.13;;;;;;;3.34;100.00;99608.63;5084053;28;20265;-74
2023/12/10 09:48:53;;;;;;;2.33;2.33;;;;;;;3.39;100.00;99609.50;5087704;28;20200;-74
2023/12/10 09:51:21;;;;;;;1.73;1.73;;;;;;;3.28;100.00;99589.19;5085968;28;20211;-74
2023/12/10 09:53:49;;;;;;;2.17;2.07;;;;;;;3.16;100.00;99582.44;5080741;28;20311;-76
2023/12/10 09:56:17;;;;;;;6.30;5.80;;;;;;;3.16;100.00;99605.22;5074197;28;20321;-76
2023/12/10 09:58:44;;;;;;;3.97;3.87;;;;;;;3.13;100.00;99597.59;5077265;28;20631;-76
2023/12/10 10:01:10;;;;;;;2.07;1.93;;;;;;;3.17;100.00;99598.44;5078159;28;20200;-77
2023/12/10 10:03:40;;;;;;;2.97;2.77;;;;;;;3.26;100.00;99597.66;5078637;28;20211;-76
2023/12/10 10:06:07;;;;;;;3.27;3.07;;;;;;;3.31;100.00;99590.91;5075168;28;20216;-76
2023/12/10 10:08:34;;;;;;;3.83;3.73;;;;;;;3.40;100.00;99588.38;5072551;28;20208;-76
2023/12/10 10:11:01;;;;;;;1.77;1.77;;;;;;;3.43;100.00;99585.84;5077855;28;20691;-77
2023/12/10 10:13:29;;;;;;;2.53;2.53;;;;;;;3.51;100.00;99579.09;5074013;28;20680;-77
2023/12/10 10:15:56;;;;;;;1.63;1.63;;;;;;;3.54;100.00;99584.16;5079639;28;20652;-76
2023/12/10 10:18:23;;;;;;;2.47;2.47;;;;;;;3.54;100.00;99571.50;5072731;28;20204;-77
2023/12/10 10:20:50;;;;;;;5.00;1.67;;;;;;;3.52;100.00;99568.13;5072298;28;20747;-76
2023/12/10 10:23:16;;;;;;;1.80;1.80;;;;;;;3.51;100.00;99563.91;5074138;28;20592;-77
2023/12/10 10:25:43;;;;;;;3.30;2.23;;;;;;;3.49;100.00;99560.53;5071121;28;20200;-74
2023/12/10 10:28:10;;;;;;;1.10;1.10;;;;;;;3.48;100.00;99553.75;5070140;28;20200;-77
2023/12/10 10:30:38;;;;;;;2.20;2.20;;;;;;;3.45;100.00;99548.69;5067248;28;20687;-77
2023/12/10 10:33:05;;;;;;;2.80;2.70;;;;;;;3.50;100.00;99541.91;5069261;28;20219;-77
2023/12/10 10:35:32;;;;;;;1.93;1.93;;;;;;;3.49;100.00;99537.72;5070293;28;20726;-78
2023/12/10 10:38:00;;;;;;;1.00;1.00;;;;;;;3.53;100.00;99536.84;5069177;28;20613;-76
2023/12/10 10:40:27;;;;;;;1.83;1.83;;;;;;;3.59;100.00;99527.56;5070294;28;20200;-78
2023/12/10 10:42:53;;;;;;;1.80;1.40;;;;;;;3.60;100.00;99520.81;5067443;28;20664;-78
2023/12/10 10:45:20;;;;;;;1.47;1.47;;;;;;;3.72;100.00;99540.25;5068402;28;20572;-77
2023/12/10 10:47:48;;;;;;;1.97;1.33;;;;;;;3.76;100.00;99530.09;5067688;28;20211;-78
2023/12/10 10:50:17;;;;;;;2.07;2.07;;;;;;;3.79;100.00;99537.69;5069541;28;20207;-77
2023/12/10 10:52:45;;;;;;;1.53;1.53;;;;;;;3.81;100.00;99535.19;5072048;28;20204;-78
2023/12/10 10:55:13;;;;;;;1.67;1.60;;;;;;;3.86;100.00;99539.38;5071326;28;20239;-77
2023/12/10 10:57:40;;;;;;;1.37;1.37;;;;;;;3.85;100.00;99542.75;5067008;28;20199;-78
2023/12/10 11:00:35;;;;;;;2.03;1.93;;;;;;;3.86;100.00;99536.84;5067469;28;20219;-77
2023/12/10 11:03:07;;;;;;;1.80;1.80;;;;;;;3.87;100.00;99538.53;5071018;28;20200;-78
2023/12/10 11:05:35;;;;;;;1.50;1.50;;;;;;;3.84;100.00;99532.63;5069468;28;20552;-78
2023/12/10 11:08:04;;;;;;;1.70;1.70;;;;;;;3.87;100.00;99533.47;5072816;28;20226;-78
2023/12/10 11:10:31;;;;;;;1.67;1.67;;;;;;;3.86;100.00;99511.50;5069621;28;20332;-78
2023/12/10 11:12:59;;;;;;;1.70;1.70;;;;;;;3.87;100.00;99523.34;5070168;28;20754;-78
2023/12/10 11:15:27;;;;;;;1.37;1.27;;;;;;;3.87;100.00;99520.78;5068560;28;20293;-77
2023/12/10 11:17:58;;;;;;;1.77;1.77;;;;;;;3.87;100.00;99533.47;5070941;28;20199;-78
2023/12/10 11:20:35;;;;;;;2.27;2.20;;;;;;;3.93;100.00;99522.47;5067119;28;20943;-77
2023/12/10 11:23:03;;;;;;;1.80;1.80;;;;;;;3.93;100.00;99528.41;5068561;28;20628;-78
2023/12/10 11:25:31;;;;;;;0.97;0.97;;;;;;;3.95;100.00;99526.69;5069576;28;20196;-77
2023/12/10 11:27:58;;;;;;;1.87;1.87;;;;;;;3.92;100.00;99516.56;5067910;28;20235;-78
2023/12/10 11:30:26;;;;;;;1.30;1.30;;;;;;;3.89;100.00;99496.25;5068297;28;20204;-78
2023/12/10 11:32:53;;;;;;;0.67;0.67;;;;;;;3.99;100.00;99502.16;5064655;28;20555;-78
2023/12/10 11:35:20;;;;;;;0.67;0.67;;;;;;;3.97;100.00;99499.66;5071401;28;20212;-78